createdAt,value
2022-08-22T00:00:14.164Z,17.72
2022-08-22T00:02:57.967Z,18.08
2022-08-22T00:03:06.868Z,18.06
2022-08-22T00:03:10.965Z,18.05
2022-08-22T00:03:17.341Z,17.70
2022-08-22T00:05:51.255Z,17.77
2022-08-22T00:08:28.083Z,17.79
2022-08-22T00:11:02.731Z,17.83
2022-08-22T00:13:38.443Z,17.77
2022-08-22T00:16:14.833Z,17.81
2022-08-22T00:18:53.145Z,17.76
2022-08-22T00:21:27.665Z,17.73
2022-08-22T00:24:15.885Z,17.67
2022-08-22T00:26:50.811Z,17.52
2022-08-22T00:29:23.859Z,17.48
2022-08-22T00:32:08.823Z,17.43
2022-08-22T00:34:45.549Z,17.29
2022-08-22T00:37:24.747Z,17.31
2022-08-22T00:40:04.269Z,17.30
2022-08-22T00:43:01.936Z,17.22
2022-08-22T00:45:45.726Z,17.24
2022-08-22T00:48:29.103Z,17.24
2022-08-22T00:51:31.754Z,17.15
2022-08-22T00:54:16.840Z,17.28
2022-08-22T00:57:07.831Z,17.35
2022-08-22T01:00:05.795Z,17.38
2022-08-22T01:02:51.921Z,17.36
2022-08-22T01:05:44.352Z,17.28
2022-08-22T01:08:34.034Z,17.33
2022-08-22T01:11:17.803Z,17.20
2022-08-22T01:14:03.275Z,17.15
2022-08-22T01:16:54.894Z,17.17
2022-08-22T01:19:53.073Z,17.24
2022-08-22T01:23:11.450Z,17.14
2022-08-22T01:26:21.612Z,17.19
2022-08-22T01:29:17.750Z,17.12
2022-08-22T01:32:18.644Z,17.06
2022-08-22T01:35:16.776Z,16.98
2022-08-22T01:38:20.056Z,17.01
2022-08-22T01:41:29.311Z,16.85
2022-08-22T01:44:09.721Z,16.74
2022-08-22T01:46:48.555Z,16.67
2022-08-22T01:49:21.792Z,16.58
2022-08-22T01:51:55.915Z,16.62
2022-08-22T01:54:36.000Z,16.58
2022-08-22T01:57:09.046Z,16.63
2022-08-22T01:59:42.410Z,16.67
2022-08-22T02:02:25.615Z,16.73
2022-08-22T02:05:01.141Z,16.72
2022-08-22T02:07:36.886Z,16.71
2022-08-22T02:10:13.921Z,16.79
2022-08-22T02:12:48.005Z,16.83
2022-08-22T02:15:26.078Z,16.85
2022-08-22T02:18:13.444Z,16.65
2022-08-22T02:20:57.667Z,16.46
2022-08-22T02:23:34.684Z,16.46
2022-08-22T02:26:09.478Z,16.54
2022-08-22T02:28:57.238Z,16.55
2022-08-22T02:31:37.917Z,16.54
2022-08-22T02:34:24.363Z,16.58
2022-08-22T02:36:58.059Z,16.58
2022-08-22T02:39:36.963Z,16.54
2022-08-22T02:42:18.308Z,16.62
2022-08-22T02:44:56.039Z,16.60
2022-08-22T02:47:35.930Z,16.61
2022-08-22T02:50:14.515Z,16.57
2022-08-22T02:52:57.370Z,16.35
2022-08-22T02:55:39.329Z,16.39
2022-08-22T02:58:27.857Z,16.46
2022-08-22T03:01:24.311Z,16.42
2022-08-22T03:03:53.794Z,16.57
2022-08-22T03:06:39.963Z,16.53
2022-08-22T03:09:25.102Z,16.37
2022-08-22T03:12:06.435Z,16.33
2022-08-22T03:14:41.270Z,16.31
2022-08-22T03:17:14.908Z,16.37
2022-08-22T03:19:49.031Z,16.32
2022-08-22T03:22:23.564Z,16.25
2022-08-22T03:24:57.988Z,16.07
2022-08-22T03:27:32.410Z,16.01
2022-08-22T03:30:07.347Z,16.31
2022-08-22T03:32:53.907Z,16.06
2022-08-22T03:35:32.496Z,15.82
2022-08-22T03:38:18.295Z,15.83
2022-08-22T03:41:05.623Z,15.88
2022-08-22T03:43:52.900Z,15.85
2022-08-22T03:46:46.956Z,15.61
2022-08-22T03:50:05.568Z,15.54
2022-08-22T03:53:18.766Z,15.51
2022-08-22T03:56:25.974Z,15.50
2022-08-22T03:59:15.378Z,15.50
2022-08-22T04:02:35.837Z,15.35
2022-08-22T04:05:56.372Z,15.28
2022-08-22T04:09:05.127Z,15.18
2022-08-22T04:12:09.061Z,15.32
2022-08-22T04:15:08.513Z,15.12
2022-08-22T04:18:18.172Z,15.09
2022-08-22T04:21:13.929Z,15.23
2022-08-22T04:24:01.408Z,15.31
2022-08-22T04:26:38.250Z,15.27
2022-08-22T04:29:19.882Z,15.25
2022-08-22T04:31:58.448Z,15.19
2022-08-22T04:34:33.499Z,15.08
2022-08-22T04:37:10.117Z,15.16
2022-08-22T04:39:48.292Z,15.36
2022-08-22T04:42:32.721Z,15.24
2022-08-22T04:45:07.110Z,15.31
2022-08-22T04:47:41.661Z,15.32
2022-08-22T04:50:17.188Z,15.25
2022-08-22T04:52:57.686Z,15.15
2022-08-22T04:55:33.845Z,15.04
2022-08-22T04:58:12.151Z,14.89
2022-08-22T05:00:46.190Z,14.86
2022-08-22T05:03:21.332Z,14.92
2022-08-22T05:05:50.940Z,14.98
2022-08-22T05:08:25.236Z,14.90
2022-08-22T05:10:54.207Z,15.07
2022-08-22T05:13:28.931Z,15.16
2022-08-22T05:16:03.231Z,15.20
2022-08-22T05:18:37.498Z,15.26
2022-08-22T05:21:09.068Z,15.26
2022-08-22T05:23:48.299Z,15.26
2022-08-22T05:26:18.356Z,15.32
2022-08-22T05:28:52.884Z,15.34
2022-08-22T05:31:27.553Z,15.49
2022-08-22T05:34:02.013Z,15.49
2022-08-22T05:36:34.194Z,15.52
2022-08-22T05:39:06.194Z,15.59
2022-08-22T05:41:37.802Z,15.55
2022-08-22T05:44:09.159Z,15.72
2022-08-22T05:46:42.492Z,15.85
2022-08-22T05:49:19.234Z,15.95
2022-08-22T05:51:53.721Z,16.00
2022-08-22T05:54:33.531Z,16.02
2022-08-22T05:57:11.402Z,16.13
2022-08-22T05:59:44.195Z,16.30
2022-08-22T06:02:19.983Z,16.45
2022-08-22T06:04:52.091Z,16.63
2022-08-22T06:07:25.353Z,16.74
2022-08-22T06:10:08.534Z,16.87
2022-08-22T06:12:43.167Z,17.03
2022-08-22T06:15:20.808Z,17.12
2022-08-22T06:17:52.199Z,17.29
2022-08-22T06:20:28.793Z,17.46
2022-08-22T06:23:01.638Z,17.65
2022-08-22T06:25:33.614Z,17.69
2022-08-22T06:28:08.004Z,17.90
2022-08-22T06:30:38.115Z,18.09
2022-08-22T06:33:12.336Z,17.99
2022-08-22T06:36:02.954Z,18.24
2022-08-22T06:38:33.625Z,18.30
2022-08-22T06:41:04.302Z,18.40
2022-08-22T06:43:42.866Z,18.61
2022-08-22T06:46:14.497Z,18.80
2022-08-22T06:48:42.786Z,18.83
2022-08-22T06:51:15.331Z,18.89
2022-08-22T06:53:48.103Z,19.22
2022-08-22T06:56:22.435Z,19.34
2022-08-22T06:58:53.392Z,19.18
2022-08-22T07:01:23.503Z,19.21
2022-08-22T07:03:54.607Z,19.17
2022-08-22T07:06:31.383Z,19.24
2022-08-22T07:08:59.582Z,19.22
2022-08-22T07:11:38.303Z,19.26
2022-08-22T07:14:08.604Z,19.47
2022-08-22T07:16:42.687Z,19.52
2022-08-22T07:19:14.451Z,19.61
2022-08-22T07:21:46.272Z,19.69
2022-08-22T07:24:17.173Z,19.59
2022-08-22T07:27:04.760Z,19.79
2022-08-22T07:29:44.276Z,19.96
2022-08-22T07:32:18.000Z,20.08
2022-08-22T07:35:10.393Z,20.17
2022-08-22T07:37:51.324Z,20.22
2022-08-22T07:40:25.717Z,20.30
2022-08-22T07:43:00.399Z,20.51
2022-08-22T07:45:36.216Z,20.54
2022-08-22T07:48:19.744Z,20.94
2022-08-22T07:51:01.692Z,20.72
2022-08-22T07:53:40.218Z,20.98
2022-08-22T07:56:17.092Z,20.79
2022-08-22T07:58:47.449Z,21.11
2022-08-22T08:01:21.034Z,21.16
2022-08-22T08:03:52.572Z,21.26
2022-08-22T08:06:23.326Z,21.33
2022-08-22T08:08:54.162Z,21.62
2022-08-22T08:11:24.979Z,21.83
2022-08-22T08:13:57.971Z,21.53
2022-08-22T08:16:29.851Z,21.42
2022-08-22T08:19:01.625Z,21.84
2022-08-22T08:21:33.020Z,21.51
2022-08-22T08:24:06.960Z,21.47
2022-08-22T08:26:40.028Z,21.79
2022-08-22T08:29:08.368Z,22.13
2022-08-22T08:31:44.887Z,22.33
2022-08-22T08:34:20.284Z,22.33
2022-08-22T08:36:53.961Z,22.38
2022-08-22T08:39:28.633Z,22.55
2022-08-22T08:43:00.816Z,22.27
2022-08-22T08:45:44.648Z,22.72
2022-08-22T08:48:23.053Z,22.82
2022-08-22T08:51:09.920Z,22.96
2022-08-22T08:54:10.480Z,23.20
2022-08-22T08:56:54.312Z,23.25
2022-08-22T08:59:44.343Z,23.46
2022-08-22T09:02:36.910Z,23.17
2022-08-22T09:05:42.243Z,23.53
2022-08-22T09:08:55.529Z,23.65
2022-08-22T09:12:01.656Z,23.65
2022-08-22T09:14:52.407Z,23.69
2022-08-22T09:17:58.872Z,23.82
2022-08-22T09:20:49.044Z,23.82
2022-08-22T09:23:43.311Z,23.85
2022-08-22T09:26:17.074Z,24.12
2022-08-22T09:28:54.664Z,24.29
2022-08-22T09:31:48.062Z,24.52
2022-08-22T09:34:27.104Z,24.56
2022-08-22T09:37:14.404Z,24.70
2022-08-22T09:39:55.425Z,24.65
2022-08-22T09:42:33.898Z,24.66
2022-08-22T09:45:34.293Z,24.19
2022-08-22T09:48:11.226Z,24.42
2022-08-22T09:50:52.694Z,24.42
2022-08-22T09:53:43.749Z,24.33
2022-08-22T09:56:18.855Z,24.38
2022-08-22T09:59:01.636Z,25.25
2022-08-22T10:01:42.345Z,25.50
2022-08-22T10:04:42.686Z,26.07
2022-08-22T10:07:36.012Z,26.00
2022-08-22T10:10:17.196Z,26.12
2022-08-22T10:12:56.621Z,26.16
2022-08-22T10:15:36.195Z,26.40
2022-08-22T10:18:23.616Z,26.22
2022-08-22T10:21:10.508Z,26.24
2022-08-22T10:23:45.926Z,26.17
2022-08-22T10:26:34.190Z,26.21
2022-08-22T10:29:30.304Z,26.48
2022-08-22T10:32:13.898Z,25.65
2022-08-22T10:34:49.090Z,25.94
2022-08-22T10:37:37.180Z,26.10
2022-08-22T10:40:21.361Z,26.26
2022-08-22T10:42:53.791Z,25.44
2022-08-22T10:45:36.564Z,25.48
2022-08-22T10:48:33.882Z,26.36
2022-08-22T10:51:16.924Z,26.60
2022-08-22T10:54:12.601Z,26.40
2022-08-22T10:56:53.660Z,26.71
2022-08-22T10:59:34.094Z,27.07
2022-08-22T11:02:23.714Z,27.00
2022-08-22T11:05:17.166Z,27.17
2022-08-22T11:07:50.438Z,27.33
2022-08-22T11:10:28.902Z,27.33
2022-08-22T11:13:13.692Z,27.87
2022-08-22T11:15:59.402Z,28.14
2022-08-22T11:18:37.899Z,27.62
2022-08-22T11:21:11.064Z,28.07
2022-08-22T11:23:48.302Z,28.07
2022-08-22T11:26:46.667Z,28.52
2022-08-22T11:29:27.758Z,28.74
2022-08-22T11:32:07.710Z,28.75
2022-08-22T11:34:51.923Z,28.42
2022-08-22T11:37:54.818Z,29.06
2022-08-22T11:40:38.870Z,28.80
2022-08-22T11:43:21.860Z,28.68
2022-08-22T11:45:55.036Z,28.22
2022-08-22T11:48:29.887Z,27.76
2022-08-22T11:51:15.873Z,27.89
2022-08-22T11:53:50.793Z,28.38
2022-08-22T11:56:27.625Z,28.84
2022-08-22T11:59:02.636Z,28.65
2022-08-22T12:01:39.391Z,28.61
2022-08-22T12:04:19.370Z,28.72
2022-08-22T12:07:03.778Z,28.53
2022-08-22T12:09:45.204Z,29.23
2022-08-22T12:12:43.829Z,29.26
2022-08-22T12:15:21.194Z,29.79
2022-08-22T12:18:30.122Z,30.11
2022-08-22T12:21:15.294Z,29.81
2022-08-22T12:24:25.404Z,29.05
2022-08-22T12:27:18.323Z,29.27
2022-08-22T12:30:13.674Z,28.76
2022-08-22T12:33:13.153Z,29.08
2022-08-22T12:35:52.945Z,28.93
2022-08-22T12:38:44.332Z,29.61
2022-08-22T12:41:34.989Z,28.83
2022-08-22T12:44:24.490Z,29.52
2022-08-22T12:47:10.242Z,29.59
2022-08-22T12:49:52.827Z,29.83
2022-08-22T12:52:38.569Z,29.92
2022-08-22T12:55:21.939Z,30.17
2022-08-22T12:58:02.711Z,28.81
2022-08-22T13:00:35.719Z,29.40
2022-08-22T13:03:09.654Z,29.96
2022-08-22T13:05:40.799Z,30.27
2022-08-22T13:08:17.362Z,30.28
2022-08-22T13:10:48.191Z,30.39
2022-08-22T13:13:31.735Z,29.82
2022-08-22T13:16:08.626Z,29.41
2022-08-22T13:18:53.398Z,29.91
2022-08-22T13:21:32.128Z,30.30
2022-08-22T13:24:10.843Z,30.21
2022-08-22T13:26:48.966Z,29.23
2022-08-22T13:29:26.150Z,29.86
2022-08-22T13:32:00.634Z,29.81
2022-08-22T13:34:39.844Z,30.25
2022-08-22T13:37:14.948Z,29.67
2022-08-22T13:39:58.906Z,30.26
2022-08-22T13:42:31.315Z,29.88
2022-08-22T13:45:05.613Z,29.26
2022-08-22T13:48:08.657Z,28.77
2022-08-22T13:50:58.086Z,29.62
2022-08-22T13:53:50.037Z,29.58
2022-08-22T13:56:43.503Z,29.43
2022-08-22T14:00:48.772Z,29.27
2022-08-22T14:07:34.085Z,29.71
2022-08-22T14:10:06.202Z,29.90
2022-08-22T14:13:07.467Z,29.92
2022-08-22T14:15:45.560Z,30.55
2022-08-22T14:18:18.644Z,30.23
2022-08-22T14:23:39.599Z,29.84
2022-08-22T14:26:08.008Z,29.93
2022-08-22T14:28:40.860Z,29.19
2022-08-22T14:31:13.636Z,28.62
2022-08-22T14:33:48.360Z,28.90
2022-08-22T14:36:23.305Z,29.23
2022-08-22T14:39:18.694Z,30.30
2022-08-22T14:41:56.528Z,30.02
2022-08-22T14:48:30.267Z,29.52
2022-08-22T14:54:39.011Z,29.95
2022-08-22T14:58:47.524Z,29.02
2022-08-22T15:01:29.718Z,28.82
2022-08-22T15:13:11.492Z,29.72
2022-08-22T15:22:13.478Z,29.63
2022-08-22T15:24:46.872Z,29.74
2022-08-22T15:30:44.505Z,29.34
2022-08-22T15:33:22.828Z,29.36
2022-08-22T15:35:53.801Z,29.77
2022-08-22T15:38:29.274Z,29.74
2022-08-22T15:41:18.269Z,29.84
2022-08-22T15:47:24.199Z,30.07
2022-08-22T15:50:15.328Z,30.11
2022-08-22T15:53:13.507Z,29.43
2022-08-22T15:56:22.441Z,29.79
2022-08-22T15:58:55.477Z,29.63
2022-08-22T16:01:26.796Z,29.59
2022-08-22T16:04:01.204Z,29.27
2022-08-22T16:06:45.291Z,29.19
2022-08-22T16:09:34.744Z,29.74
2022-08-22T16:12:07.066Z,29.65
2022-08-22T16:15:22.747Z,29.75
2022-08-22T16:17:53.276Z,29.61
2022-08-22T16:20:50.903Z,29.28
2022-08-22T16:24:04.127Z,29.63
2022-08-22T16:26:43.061Z,29.21
2022-08-22T16:29:35.546Z,29.68
2022-08-22T16:32:11.984Z,29.51
2022-08-22T16:34:43.960Z,29.16
2022-08-22T16:37:35.787Z,29.42
2022-08-22T16:40:17.627Z,29.69
2022-08-22T16:42:53.161Z,29.59
2022-08-22T16:45:34.982Z,28.95
2022-08-22T16:48:33.723Z,29.18
2022-08-22T16:51:21.285Z,28.88
2022-08-22T16:54:11.834Z,28.95
2022-08-22T16:57:04.137Z,28.83
2022-08-22T17:00:04.761Z,28.66
2022-08-22T17:02:53.490Z,28.50
2022-08-22T17:05:30.838Z,28.59
2022-08-22T17:08:14.537Z,28.38
2022-08-22T17:10:59.753Z,27.90
2022-08-22T17:13:50.407Z,27.96
2022-08-22T17:16:42.668Z,28.05
2022-08-22T17:19:25.623Z,27.67
2022-08-22T17:21:58.969Z,27.53
2022-08-22T17:24:35.396Z,27.54
2022-08-22T17:27:09.131Z,27.45
2022-08-22T17:29:47.343Z,27.18
2022-08-22T17:32:28.034Z,27.33
2022-08-22T17:35:16.032Z,27.52
2022-08-22T17:38:02.327Z,27.23
2022-08-22T17:40:45.787Z,27.06
2022-08-22T17:43:21.904Z,27.03
2022-08-22T17:46:06.508Z,26.86
2022-08-22T17:48:51.555Z,26.69
2022-08-22T17:51:28.745Z,26.88
2022-08-22T17:54:02.825Z,26.73
2022-08-22T17:56:46.399Z,26.81
2022-08-22T17:59:22.472Z,26.46
2022-08-22T18:01:55.114Z,26.17
2022-08-22T18:04:32.358Z,26.15
2022-08-22T18:07:20.644Z,26.17
2022-08-22T18:09:53.722Z,26.18
2022-08-22T18:12:31.201Z,26.28
2022-08-22T18:15:08.349Z,25.82
2022-08-22T18:17:41.372Z,25.83
2022-08-22T18:20:16.328Z,25.69
2022-08-22T18:22:49.717Z,25.84
2022-08-22T18:25:41.903Z,25.57
2022-08-22T18:28:22.253Z,25.35
2022-08-22T18:31:02.178Z,25.08
2022-08-22T18:33:35.626Z,24.92
2022-08-22T18:36:14.286Z,24.59
2022-08-22T18:38:55.217Z,24.41
2022-08-22T18:41:30.363Z,24.17
2022-08-22T18:44:01.613Z,24.06
2022-08-22T18:46:42.543Z,24.02
2022-08-22T18:49:28.370Z,24.06
2022-08-22T18:52:17.173Z,23.85
2022-08-22T18:55:08.893Z,23.86
2022-08-22T18:57:55.161Z,23.78
2022-08-22T19:00:37.667Z,23.77
2022-08-22T19:03:36.269Z,23.48
2022-08-22T19:06:38.099Z,23.34
2022-08-22T19:09:49.988Z,23.23
2022-08-22T19:12:36.456Z,23.30
2022-08-22T19:15:20.480Z,23.25
2022-08-22T19:18:08.461Z,23.30
2022-08-22T19:20:56.360Z,23.31
2022-08-22T19:23:47.787Z,23.24
2022-08-22T19:26:42.690Z,23.25
2022-08-22T19:29:55.621Z,23.18
2022-08-22T19:33:05.380Z,23.14
2022-08-22T19:35:47.311Z,23.04
2022-08-22T19:38:53.781Z,22.92
2022-08-22T19:41:52.608Z,22.80
2022-08-22T19:44:42.647Z,22.73
2022-08-22T19:47:34.895Z,22.67
2022-08-22T19:50:08.953Z,22.66
2022-08-22T19:52:59.062Z,22.57
2022-08-22T19:55:42.104Z,22.61
2022-08-22T19:58:31.860Z,22.55
2022-08-22T20:01:07.623Z,22.45
2022-08-22T20:03:46.259Z,22.49
2022-08-22T20:06:43.097Z,22.39
2022-08-22T20:09:35.459Z,22.25
2022-08-22T20:12:16.307Z,22.11
2022-08-22T20:14:48.549Z,22.07
2022-08-22T20:17:41.534Z,21.98
2022-08-22T20:20:19.362Z,22.01
2022-08-22T20:22:56.755Z,21.90
2022-08-22T20:25:42.861Z,21.86
2022-08-22T20:28:31.515Z,21.79
2022-08-22T20:31:03.981Z,21.82
2022-08-22T20:33:35.692Z,21.81
2022-08-22T20:36:06.635Z,21.76
2022-08-22T20:38:56.046Z,21.77
2022-08-22T20:41:28.206Z,21.72
2022-08-22T20:44:02.023Z,21.76
2022-08-22T20:46:46.616Z,21.67
2022-08-22T20:49:19.760Z,21.58
2022-08-22T20:51:53.699Z,21.42
2022-08-22T20:54:25.857Z,21.35
2022-08-22T20:56:57.149Z,21.41
2022-08-22T20:59:37.222Z,21.29
2022-08-22T21:02:15.339Z,21.34
2022-08-22T21:04:52.903Z,21.40
2022-08-22T21:07:26.730Z,21.27
2022-08-22T21:10:12.701Z,21.11
2022-08-22T21:12:40.948Z,20.97
2022-08-22T21:15:10.230Z,20.96
2022-08-22T21:17:39.738Z,20.99
2022-08-22T21:20:21.258Z,20.87
2022-08-22T21:22:50.154Z,20.87
2022-08-22T21:25:18.435Z,20.89
2022-08-22T21:27:52.402Z,20.87
2022-08-22T21:30:24.975Z,20.97
2022-08-22T21:32:56.359Z,21.03
2022-08-22T21:35:30.355Z,20.95
2022-08-22T21:37:59.148Z,20.90
2022-08-22T21:40:33.488Z,20.84
2022-08-22T21:43:07.610Z,20.85
2022-08-22T21:45:42.856Z,20.79
2022-08-22T21:48:36.242Z,20.81
2022-08-22T21:51:32.965Z,21.05
2022-08-22T21:54:33.655Z,20.83
2022-08-22T21:57:19.861Z,20.87
2022-08-22T21:59:51.607Z,21.01
2022-08-22T22:02:31.149Z,20.94
2022-08-22T22:05:03.579Z,20.85
2022-08-22T22:07:32.059Z,21.03
2022-08-22T22:10:00.329Z,21.13
2022-08-22T22:12:28.367Z,21.06
2022-08-22T22:14:56.415Z,21.02
2022-08-22T22:17:24.509Z,20.99
2022-08-22T22:19:52.827Z,20.95
2022-08-22T22:22:22.664Z,20.82
2022-08-22T22:24:50.711Z,20.83
2022-08-22T22:27:18.846Z,20.90
2022-08-22T22:29:46.890Z,20.99
2022-08-22T22:32:15.287Z,20.99
2022-08-22T22:34:43.356Z,20.94
2022-08-22T22:37:14.916Z,20.93
2022-08-22T22:39:44.828Z,20.94
2022-08-22T22:42:13.517Z,20.90
2022-08-22T22:44:41.801Z,20.87
2022-08-22T22:47:15.948Z,20.77
2022-08-22T22:49:45.641Z,20.65
2022-08-22T22:52:15.226Z,20.66
2022-08-22T22:54:47.487Z,20.74
2022-08-22T22:57:25.406Z,20.70
2022-08-22T22:59:54.492Z,20.65
2022-08-22T23:02:24.784Z,20.64
2022-08-22T23:04:56.402Z,20.60
2022-08-22T23:07:25.828Z,20.66
2022-08-22T23:09:57.087Z,20.60
2022-08-22T23:12:28.073Z,20.49
2022-08-22T23:14:56.085Z,20.52
2022-08-22T23:17:24.455Z,20.41
2022-08-22T23:19:52.668Z,20.40
2022-08-22T23:22:21.454Z,20.46
2022-08-22T23:24:51.854Z,20.47
2022-08-22T23:27:21.387Z,20.45
2022-08-22T23:29:50.930Z,20.30
2022-08-22T23:32:19.503Z,19.97
2022-08-22T23:34:49.460Z,20.07
2022-08-22T23:37:19.803Z,20.06
2022-08-22T23:39:48.384Z,20.09
2022-08-22T23:42:18.145Z,20.27
2022-08-22T23:44:47.644Z,19.99
2022-08-22T23:47:16.630Z,20.11
2022-08-22T23:49:45.758Z,19.86
2022-08-22T23:52:14.271Z,19.76
2022-08-22T23:54:42.768Z,19.89
2022-08-22T23:57:11.663Z,20.07
2022-08-22T23:59:48.418Z,19.94
